createdAt,value
2018-08-10T00:00:00.898Z,11.03
2018-08-10T00:02:41.610Z,11.00
2018-08-10T00:05:21.962Z,10.70
2018-08-10T00:07:58.840Z,11.17
2018-08-10T00:10:32.565Z,11.03
2018-08-10T00:13:05.839Z,11.07
2018-08-10T00:15:54.967Z,11.70
2018-08-10T00:18:46.088Z,11.40
2018-08-10T00:21:45.219Z,12.50
2018-08-10T00:24:17.380Z,12.67
2018-08-10T00:26:51.475Z,13.57
2018-08-10T00:29:28.717Z,13.80
2018-08-10T00:32:08.569Z,13.33
2018-08-10T00:34:42.322Z,13.57
2018-08-10T00:37:20.751Z,14.03
2018-08-10T00:44:56.709Z,13.37
2018-08-10T00:47:38.276Z,14.93
2018-08-10T00:50:18.488Z,14.90
2018-08-10T00:52:53.228Z,14.97
2018-08-10T00:55:29.778Z,16.20
2018-08-10T00:58:06.147Z,15.93
2018-08-10T01:00:37.713Z,15.23
2018-08-10T01:03:15.342Z,16.60
2018-08-10T01:06:08.733Z,15.80
2018-08-10T01:08:49.858Z,16.27
2018-08-10T01:11:24.527Z,15.83
2018-08-10T01:14:02.498Z,15.23
2018-08-10T01:16:35.540Z,15.73
2018-08-10T01:19:08.353Z,15.67
2018-08-10T01:21:44.312Z,16.13
2018-08-10T01:24:22.690Z,15.50
2018-08-10T01:26:56.109Z,16.20
2018-08-10T01:29:42.560Z,15.97
2018-08-10T01:32:20.870Z,16.07
2018-08-10T01:34:54.837Z,15.93
2018-08-10T01:37:32.199Z,14.47
2018-08-10T01:40:12.416Z,14.70
2018-08-10T01:42:52.431Z,14.13
2018-08-10T01:45:28.522Z,15.10
2018-08-10T01:48:05.962Z,14.33
2018-08-10T01:51:02.656Z,14.93
2018-08-10T01:53:32.210Z,14.53
2018-08-10T01:56:04.291Z,15.13
2018-08-10T01:58:40.349Z,15.00
2018-08-10T02:01:15.373Z,15.33
2018-08-10T02:03:47.900Z,15.70
2018-08-10T02:06:29.112Z,14.37
2018-08-10T02:09:01.852Z,15.27
2018-08-10T02:11:34.489Z,15.97
2018-08-10T02:14:07.657Z,15.23
2018-08-10T02:17:43.402Z,15.33
2018-08-10T02:20:20.061Z,15.70
2018-08-10T02:22:54.721Z,15.33
2018-08-10T02:25:26.378Z,15.67
2018-08-10T02:28:03.946Z,15.93
2018-08-10T02:30:38.211Z,16.23
2018-08-10T02:33:13.378Z,15.90
2018-08-10T02:35:49.297Z,16.23
2018-08-10T02:38:21.206Z,17.43
2018-08-10T02:40:54.711Z,17.10
2018-08-10T02:43:27.995Z,17.03
2018-08-10T02:45:59.304Z,16.87
2018-08-10T02:48:31.186Z,17.90
2018-08-10T02:51:00.993Z,16.97
2018-08-10T02:53:30.607Z,17.27
2018-08-10T02:56:00.158Z,16.77
2018-08-10T02:58:29.603Z,17.73
2018-08-10T03:00:59.002Z,17.37
2018-08-10T03:03:28.619Z,16.87
2018-08-10T03:05:58.143Z,17.87
2018-08-10T03:08:27.585Z,17.50
2018-08-10T03:10:57.302Z,18.20
2018-08-10T03:13:26.919Z,18.83
2018-08-10T03:15:56.800Z,18.97
2018-08-10T03:18:26.490Z,17.63
2018-08-10T03:20:55.980Z,17.77
2018-08-10T03:23:25.457Z,17.47
2018-08-10T03:25:54.862Z,17.83
2018-08-10T03:28:24.424Z,18.20
2018-08-10T03:30:54.094Z,17.93
2018-08-10T03:33:23.521Z,18.10
2018-08-10T03:35:52.984Z,17.50
2018-08-10T03:38:22.531Z,18.60
2018-08-10T03:40:52.421Z,18.60
2018-08-10T03:43:23.023Z,17.77
2018-08-10T03:45:52.650Z,18.60
2018-08-10T03:48:22.200Z,18.40
2018-08-10T03:50:53.333Z,18.53
2018-08-10T03:53:23.082Z,18.00
2018-08-10T03:55:52.629Z,17.27
2018-08-10T03:58:22.169Z,17.10
2018-08-10T04:00:51.878Z,15.27
2018-08-10T04:03:21.493Z,15.37
2018-08-10T04:05:50.968Z,15.97
2018-08-10T04:08:20.544Z,15.93
2018-08-10T04:10:50.121Z,15.67
2018-08-10T04:13:20.364Z,16.73
2018-08-10T04:15:49.854Z,16.83
2018-08-10T04:18:19.274Z,15.63
2018-08-10T04:20:48.759Z,16.17
2018-08-10T04:23:18.379Z,20.80
2018-08-10T04:25:48.107Z,15.43
2018-08-10T04:28:18.098Z,15.23
2018-08-10T04:30:47.569Z,16.07
2018-08-10T04:33:17.488Z,16.70
2018-08-10T04:35:47.307Z,15.17
2018-08-10T04:38:16.801Z,15.43
2018-08-10T04:40:46.470Z,15.40
2018-08-10T04:43:15.946Z,14.50
2018-08-10T04:45:46.518Z,13.97
2018-08-10T04:48:16.976Z,14.70
2018-08-10T04:50:46.511Z,14.47
2018-08-10T04:53:15.954Z,14.27
2018-08-10T04:55:45.429Z,14.67
2018-08-10T04:58:15.042Z,14.23
2018-08-10T05:00:44.458Z,13.87
2018-08-10T05:03:14.085Z,13.70
2018-08-10T05:05:43.503Z,13.83
2018-08-10T05:08:13.200Z,13.63
2018-08-10T05:10:42.759Z,13.90
2018-08-10T05:13:12.262Z,14.53
2018-08-10T05:15:42.172Z,14.57
2018-08-10T05:18:11.687Z,14.77
2018-08-10T05:20:41.271Z,14.33
2018-08-10T05:23:10.709Z,13.90
2018-08-10T05:25:41.813Z,13.20
2018-08-10T05:28:11.375Z,14.90
2018-08-10T05:30:41.039Z,13.17
2018-08-10T05:33:10.727Z,14.50
2018-08-10T05:35:40.247Z,15.13
2018-08-10T05:41:42.532Z,14.57
2018-08-10T05:44:12.096Z,14.13
2018-08-10T05:46:41.529Z,15.43
2018-08-10T05:49:11.041Z,13.00
2018-08-10T05:51:40.561Z,13.50
2018-08-10T05:54:10.105Z,13.73
2018-08-10T05:56:39.553Z,13.30
2018-08-10T05:59:09.124Z,13.17
2018-08-10T06:01:38.588Z,13.90
2018-08-10T06:04:08.230Z,13.40
2018-08-10T06:06:37.770Z,11.80
2018-08-10T06:09:15.492Z,11.83
2018-08-10T06:11:45.571Z,14.47
2018-08-10T06:14:15.805Z,11.63
2018-08-10T06:16:45.527Z,12.10
2018-08-10T06:19:15.022Z,11.40
2018-08-10T06:21:44.829Z,10.80
2018-08-10T06:24:14.242Z,11.23
2018-08-10T06:26:43.735Z,9.60
2018-08-10T06:29:13.296Z,9.80
2018-08-10T06:31:42.763Z,10.77
2018-08-10T06:34:12.722Z,8.93
2018-08-10T06:36:42.325Z,9.20
2018-08-10T06:39:16.088Z,12.17
2018-08-10T06:41:45.760Z,9.77
2018-08-10T06:44:15.200Z,8.50
2018-08-10T06:46:44.630Z,8.90
2018-08-10T06:49:14.303Z,7.73
2018-08-10T06:51:44.026Z,7.97
2018-08-10T06:54:13.793Z,7.50
2018-08-10T06:56:44.464Z,8.77
2018-08-10T06:59:13.977Z,7.60
2018-08-10T07:01:43.619Z,6.47
2018-08-10T07:04:13.275Z,6.40
2018-08-10T07:06:42.953Z,6.73
2018-08-10T07:09:13.510Z,7.27
2018-08-10T07:11:43.106Z,6.70
2018-08-10T07:14:12.968Z,6.50
2018-08-10T07:16:42.476Z,6.03
2018-08-10T07:19:12.616Z,6.83
2018-08-10T07:21:44.340Z,6.10
2018-08-10T07:24:13.955Z,6.30
2018-08-10T07:26:46.906Z,6.70
2018-08-10T07:29:16.663Z,6.03
2018-08-10T07:31:46.221Z,7.17
2018-08-10T07:34:15.817Z,5.80
2018-08-10T07:36:45.501Z,5.93
2018-08-10T07:39:15.187Z,5.73
2018-08-10T07:41:45.017Z,6.10
2018-08-10T07:44:14.789Z,6.70
2018-08-10T07:46:44.536Z,6.80
2018-08-10T07:49:13.988Z,6.30
2018-08-10T07:51:43.770Z,5.63
2018-08-10T07:54:13.663Z,5.47
2018-08-10T07:56:43.292Z,5.73
2018-08-10T07:59:12.944Z,6.50
2018-08-10T08:01:42.999Z,5.30
2018-08-10T08:04:13.307Z,6.17
2018-08-10T08:06:43.202Z,4.87
2018-08-10T08:09:13.794Z,5.13
2018-08-10T08:11:43.786Z,5.10
2018-08-10T08:14:13.517Z,5.13
2018-08-10T08:16:43.210Z,5.10
2018-08-10T08:19:13.047Z,5.70
2018-08-10T08:22:20.386Z,4.87
2018-08-10T08:24:50.460Z,5.40
2018-08-10T08:27:20.748Z,4.67
2018-08-10T08:29:50.508Z,5.30
2018-08-10T08:32:20.381Z,4.60
2018-08-10T08:34:50.518Z,4.50
2018-08-10T08:37:20.971Z,3.93
2018-08-10T08:40:15.930Z,4.63
2018-08-10T08:42:46.564Z,3.80
2018-08-10T08:46:19.912Z,4.20
2018-08-10T08:48:50.757Z,3.10
2018-08-10T08:51:24.690Z,4.20
2018-08-10T08:54:05.291Z,3.80
2018-08-10T08:56:44.383Z,3.87
2018-08-10T08:59:14.091Z,3.90
2018-08-10T09:01:43.780Z,4.07
2018-08-10T09:04:28.429Z,3.40
2018-08-10T09:06:58.025Z,4.63
2018-08-10T09:09:38.240Z,3.70
2018-08-10T09:12:07.891Z,4.10
2018-08-10T09:14:48.124Z,3.97
2018-08-10T09:17:17.897Z,4.00
2018-08-10T09:19:47.679Z,4.47
2018-08-10T09:22:17.305Z,3.90
2018-08-10T09:24:46.875Z,4.47
2018-08-10T09:27:17.528Z,4.47
2018-08-10T09:29:47.283Z,3.80
2018-08-10T09:32:16.879Z,5.30
2018-08-10T09:34:46.499Z,5.27
2018-08-10T09:37:17.060Z,6.57
2018-08-10T09:39:46.931Z,4.37
2018-08-10T09:42:16.598Z,4.47
2018-08-10T09:44:46.172Z,4.43
2018-08-10T09:47:15.793Z,4.67
2018-08-10T09:49:48.456Z,3.97
2018-08-10T09:52:18.094Z,4.63
2018-08-10T09:55:29.194Z,3.80
2018-08-10T09:58:03.324Z,4.63
2018-08-10T10:00:38.123Z,3.80
2018-08-10T10:03:14.048Z,4.33
2018-08-10T10:05:44.022Z,4.07
2018-08-10T10:08:14.731Z,4.67
2018-08-10T10:10:44.297Z,4.50
2018-08-10T10:13:15.141Z,4.50
2018-08-10T10:15:44.754Z,4.57
2018-08-10T10:18:15.336Z,5.00
2018-08-10T10:20:45.742Z,5.03
2018-08-10T10:23:15.852Z,4.43
2018-08-10T10:25:45.658Z,4.87
2018-08-10T10:28:15.171Z,4.50
2018-08-10T10:30:44.832Z,4.20
2018-08-10T10:33:15.063Z,5.03
2018-08-10T10:35:44.737Z,4.40
2018-08-10T10:38:14.233Z,4.80
2018-08-10T10:40:44.241Z,4.80
2018-08-10T10:43:14.061Z,4.13
2018-08-10T10:45:43.524Z,4.50
2018-08-10T10:48:13.304Z,4.57
2018-08-10T10:50:42.828Z,4.93
2018-08-10T10:53:13.767Z,4.57
2018-08-10T10:55:43.744Z,4.40
2018-08-10T10:58:13.933Z,5.13
2018-08-10T11:00:44.119Z,3.87
2018-08-10T11:03:13.785Z,5.13
2018-08-10T11:05:43.573Z,4.03
2018-08-10T11:08:13.075Z,4.60
2018-08-10T11:10:42.522Z,3.73
2018-08-10T11:13:12.597Z,3.50
2018-08-10T11:15:42.468Z,4.33
2018-08-10T11:18:12.928Z,3.17
2018-08-10T11:20:43.948Z,5.27
2018-08-10T11:23:13.701Z,4.50
2018-08-10T11:25:43.223Z,3.63
2018-08-10T11:28:12.724Z,4.20
2018-08-10T11:30:42.228Z,3.33
2018-08-10T11:33:11.778Z,3.87
2018-08-10T11:35:41.240Z,3.70
2018-08-10T11:38:10.832Z,3.23
2018-08-10T11:40:40.933Z,4.00
2018-08-10T11:43:10.607Z,3.50
2018-08-10T11:45:40.211Z,4.23
2018-08-10T11:48:09.759Z,3.80
2018-08-10T11:50:40.419Z,3.77
2018-08-10T11:53:09.942Z,4.07
2018-08-10T11:55:39.762Z,4.00
2018-08-10T11:58:09.480Z,3.70
2018-08-10T12:00:38.926Z,4.67
2018-08-10T12:03:08.781Z,4.13
2018-08-10T12:05:38.268Z,3.70
2018-08-10T12:08:08.952Z,3.57
2018-08-10T12:10:38.582Z,4.03
2018-08-10T12:13:08.231Z,4.57
2018-08-10T12:15:37.735Z,4.03
2018-08-10T12:18:07.521Z,4.33
2018-08-10T12:20:37.179Z,3.43
2018-08-10T12:23:08.363Z,4.13
2018-08-10T12:25:37.921Z,4.30
2018-08-10T12:28:07.672Z,4.23
2018-08-10T12:30:37.395Z,4.40
2018-08-10T12:33:07.432Z,4.47
2018-08-10T12:35:36.952Z,4.40
2018-08-10T12:38:06.846Z,3.77
2018-08-10T12:40:38.025Z,4.47
2018-08-10T12:43:07.540Z,4.73
2018-08-10T12:45:37.087Z,4.93
2018-08-10T12:48:07.340Z,4.17
2018-08-10T12:50:37.016Z,4.20
2018-08-10T12:53:07.627Z,4.67
2018-08-10T12:55:37.998Z,4.87
2018-08-10T12:58:07.607Z,4.63
2018-08-10T13:00:37.109Z,4.67
2018-08-10T13:03:07.178Z,4.30
2018-08-10T13:05:36.703Z,5.37
2018-08-10T13:08:06.348Z,4.47
2018-08-10T13:10:35.982Z,4.13
2018-08-10T13:13:05.589Z,4.50
2018-08-10T13:15:35.135Z,4.33
2018-08-10T13:18:04.804Z,4.33
2018-08-10T13:20:34.301Z,4.60
2018-08-10T13:23:04.027Z,4.50
2018-08-10T13:25:33.468Z,4.43
2018-08-10T13:28:03.117Z,3.83
2018-08-10T13:30:32.675Z,4.60
2018-08-10T13:33:02.360Z,4.77
2018-08-10T13:35:31.923Z,4.37
2018-08-10T13:38:01.453Z,4.43
2018-08-10T13:40:30.974Z,4.27
2018-08-10T13:43:00.364Z,4.93
2018-08-10T13:45:30.131Z,4.90
2018-08-10T13:47:59.811Z,4.73
2018-08-10T13:50:29.322Z,4.60
2018-08-10T13:52:59.072Z,4.50
2018-08-10T13:55:29.066Z,4.40
2018-08-10T13:57:58.816Z,5.20
2018-08-10T14:00:28.573Z,4.43
2018-08-10T14:02:58.546Z,4.50
2018-08-10T14:05:28.429Z,4.40
2018-08-10T14:07:58.154Z,4.57
2018-08-10T14:10:27.825Z,5.20
2018-08-10T14:12:57.486Z,5.07
2018-08-10T14:15:27.246Z,4.90
2018-08-10T14:17:56.897Z,5.00
2018-08-10T14:20:26.445Z,4.07
2018-08-10T14:22:56.274Z,4.23
2018-08-10T14:25:25.886Z,3.60
2018-08-10T14:27:55.504Z,4.10
2018-08-10T14:30:25.308Z,4.00
2018-08-10T14:32:54.864Z,4.47
2018-08-10T14:35:24.686Z,3.63
2018-08-10T14:37:54.359Z,6.10
2018-08-10T14:40:24.046Z,3.60
2018-08-10T14:43:31.497Z,4.13
2018-08-10T14:46:01.030Z,4.47
2018-08-10T14:48:31.146Z,4.03
2018-08-10T14:51:00.765Z,4.57
2018-08-10T14:53:30.567Z,4.57
2018-08-10T14:56:00.167Z,3.70
2018-08-10T14:58:29.844Z,3.40
2018-08-10T15:00:59.280Z,3.80
2018-08-10T15:03:28.833Z,3.40
2018-08-10T15:05:58.604Z,3.60
2018-08-10T15:08:28.168Z,3.80
2018-08-10T15:10:57.745Z,3.77
2018-08-10T15:13:27.864Z,3.53
2018-08-10T15:15:58.039Z,3.93
2018-08-10T15:18:27.597Z,3.90
2018-08-10T15:20:56.980Z,4.13
2018-08-10T15:23:26.676Z,3.37
2018-08-10T15:25:56.242Z,3.97
2018-08-10T15:28:25.800Z,4.77
2018-08-10T15:30:55.414Z,3.97
2018-08-10T15:33:25.459Z,4.00
2018-08-10T15:35:54.869Z,4.20
2018-08-10T15:38:24.426Z,4.03
2018-08-10T15:40:54.375Z,6.40
2018-08-10T15:43:24.937Z,5.97
2018-08-10T15:45:54.669Z,3.67
2018-08-10T15:48:24.606Z,4.40
2018-08-10T15:50:54.372Z,4.47
2018-08-10T15:53:23.989Z,4.50
2018-08-10T15:55:53.764Z,4.13
2018-08-10T15:58:23.437Z,4.43
2018-08-10T16:00:53.106Z,4.83
2018-08-10T16:03:22.844Z,4.07
2018-08-10T16:05:52.671Z,5.93
2018-08-10T16:08:22.609Z,3.97
2018-08-10T16:10:52.313Z,4.80
2018-08-10T16:13:22.009Z,4.13
2018-08-10T16:15:52.323Z,4.70
2018-08-10T16:18:21.877Z,4.70
2018-08-10T16:20:51.695Z,5.03
2018-08-10T16:23:21.297Z,4.47
2018-08-10T16:25:50.858Z,5.27
2018-08-10T16:28:20.406Z,4.20
2018-08-10T16:30:50.074Z,4.10
2018-08-10T16:33:20.125Z,3.93
2018-08-10T16:35:49.628Z,3.97
2018-08-10T16:38:19.517Z,4.63
2018-08-10T16:40:49.336Z,5.60
2018-08-10T16:43:19.079Z,3.97
2018-08-10T16:45:49.079Z,3.90
2018-08-10T16:48:18.691Z,6.97
2018-08-10T16:50:48.847Z,4.90
2018-08-10T16:53:18.395Z,3.60
2018-08-10T16:55:47.850Z,3.97
2018-08-10T16:58:17.295Z,3.47
2018-08-10T17:00:46.852Z,4.43
2018-08-10T17:03:16.843Z,3.87
2018-08-10T17:05:46.438Z,5.03
2018-08-10T17:08:16.042Z,4.00
2018-08-10T17:10:45.753Z,4.67
2018-08-10T17:13:15.296Z,4.27
2018-08-10T17:15:44.986Z,5.70
2018-08-10T17:18:14.740Z,5.00
2018-08-10T17:20:44.534Z,4.23
2018-08-10T17:23:25.756Z,4.80
2018-08-10T17:25:55.323Z,6.13
2018-08-10T17:28:24.813Z,6.40
2018-08-10T17:30:54.539Z,4.97
2018-08-10T17:33:24.200Z,5.07
2018-08-10T17:35:53.748Z,5.90
2018-08-10T17:38:23.348Z,5.80
2018-08-10T17:40:52.857Z,5.37
2018-08-10T17:43:22.334Z,5.80
2018-08-10T17:45:52.147Z,6.03
2018-08-10T17:48:21.878Z,5.90
2018-08-10T17:50:51.693Z,7.73
2018-08-10T17:53:21.236Z,6.17
2018-08-10T17:55:50.993Z,6.73
2018-08-10T17:58:20.478Z,8.23
2018-08-10T18:00:50.039Z,9.50
2018-08-10T18:03:19.864Z,13.73
2018-08-10T18:05:49.518Z,10.73
2018-08-10T18:08:19.019Z,11.03
2018-08-10T18:10:48.548Z,10.30
2018-08-10T18:13:18.138Z,11.77
2018-08-10T18:15:47.652Z,8.63
2018-08-10T18:18:17.327Z,6.33
2018-08-10T18:20:47.744Z,7.20
2018-08-10T18:23:17.534Z,7.93
2018-08-10T18:25:47.260Z,6.10
2018-08-10T18:28:17.113Z,7.20
2018-08-10T18:30:46.805Z,6.70
2018-08-10T18:33:16.536Z,8.00
2018-08-10T18:35:46.220Z,6.13
2018-08-10T18:38:15.802Z,6.53
2018-08-10T18:40:45.330Z,6.10
2018-08-10T18:43:14.836Z,6.50
2018-08-10T18:45:44.495Z,6.07
2018-08-10T18:48:14.154Z,5.17
2018-08-10T18:50:43.846Z,4.57
2018-08-10T18:53:13.755Z,4.30
2018-08-10T18:55:43.310Z,3.87
2018-08-10T18:58:12.732Z,4.03
2018-08-10T19:00:42.120Z,3.53
2018-08-10T19:03:11.752Z,3.43
2018-08-10T19:05:41.714Z,4.03
2018-08-10T19:08:11.585Z,4.23
2018-08-10T19:10:41.328Z,4.77
2018-08-10T19:13:10.946Z,3.17
2018-08-10T19:15:40.676Z,2.70
2018-08-10T19:18:10.273Z,2.67
2018-08-10T19:20:40.055Z,2.70
2018-08-10T19:23:09.797Z,2.77
2018-08-10T19:25:39.646Z,3.10
2018-08-10T19:28:09.437Z,2.50
2018-08-10T19:30:39.222Z,3.00
2018-08-10T19:33:08.705Z,2.40
2018-08-10T19:35:38.237Z,2.97
2018-08-10T19:38:07.888Z,3.13
2018-08-10T19:40:37.487Z,2.30
2018-08-10T19:43:06.990Z,2.60
2018-08-10T19:45:36.807Z,2.90
2018-08-10T19:48:06.701Z,3.43
2018-08-10T19:50:36.274Z,3.67
2018-08-10T19:53:06.215Z,2.97
2018-08-10T19:55:35.867Z,3.10
2018-08-10T19:58:06.027Z,2.87
2018-08-10T20:00:35.719Z,2.47
2018-08-10T20:03:05.648Z,2.40
2018-08-10T20:05:35.165Z,2.27
2018-08-10T20:08:04.940Z,2.60
2018-08-10T20:10:34.685Z,2.40
2018-08-10T20:13:05.354Z,2.13
2018-08-10T20:15:34.999Z,2.60
2018-08-10T20:18:04.775Z,2.10
2018-08-10T20:20:34.580Z,3.00
2018-08-10T20:23:04.163Z,2.87
2018-08-10T20:25:33.708Z,2.90
2018-08-10T20:28:03.223Z,2.73
2018-08-10T20:30:32.913Z,2.67
2018-08-10T20:33:02.452Z,3.00
2018-08-10T20:35:33.324Z,3.00
2018-08-10T20:38:03.113Z,2.43
2018-08-10T20:40:32.883Z,2.67
2018-08-10T20:43:02.685Z,7.30
2018-08-10T20:45:32.588Z,3.30
2018-08-10T20:48:03.208Z,3.70
2018-08-10T20:50:33.030Z,2.47
2018-08-10T20:53:02.805Z,3.33
2018-08-10T20:55:32.609Z,2.17
2018-08-10T20:58:02.409Z,2.67
2018-08-10T21:00:31.973Z,2.60
2018-08-10T21:03:01.869Z,2.13
2018-08-10T21:05:31.502Z,3.30
2018-08-10T21:08:01.098Z,2.53
2018-08-10T21:10:30.790Z,2.37
2018-08-10T21:13:00.566Z,2.93
2018-08-10T21:15:30.257Z,2.80
2018-08-10T21:17:59.914Z,3.17
2018-08-10T21:20:29.519Z,2.70
2018-08-10T21:22:59.368Z,2.80
2018-08-10T21:25:29.283Z,2.83
2018-08-10T21:27:59.123Z,3.20
2018-08-10T21:30:28.755Z,3.37
2018-08-10T21:32:58.500Z,2.40
2018-08-10T21:35:28.089Z,2.73
2018-08-10T21:37:57.773Z,3.30
2018-08-10T21:40:27.424Z,2.83
2018-08-10T21:42:56.944Z,3.00
2018-08-10T21:45:26.434Z,2.73
2018-08-10T21:47:56.256Z,2.97
2018-08-10T21:50:25.973Z,3.00
2018-08-10T21:52:56.149Z,2.87
2018-08-10T21:55:25.987Z,2.73
2018-08-10T21:57:55.577Z,2.47
2018-08-10T22:00:37.611Z,2.77
2018-08-10T22:03:08.888Z,3.97
2018-08-10T22:05:38.436Z,2.93
2018-08-10T22:08:07.961Z,3.13
2018-08-10T22:10:37.790Z,3.13
2018-08-10T22:13:07.876Z,3.73
2018-08-10T22:15:56.733Z,3.03
2018-08-10T22:18:31.719Z,3.53
2018-08-10T22:21:01.816Z,3.30
2018-08-10T22:23:33.277Z,4.10
2018-08-10T22:26:03.696Z,3.33
2018-08-10T22:28:33.456Z,2.60
2018-08-10T22:31:04.165Z,4.50
2018-08-10T22:33:34.311Z,2.57
2018-08-10T22:36:04.998Z,3.97
2018-08-10T22:38:35.361Z,6.30
2018-08-10T22:41:05.128Z,2.80
2018-08-10T22:43:34.613Z,3.60
2018-08-10T22:46:04.219Z,2.97
2018-08-10T22:48:34.064Z,3.20
2018-08-10T22:51:03.843Z,2.40
2018-08-10T22:53:33.599Z,3.17
2018-08-10T22:56:03.592Z,2.90
2018-08-10T22:58:34.095Z,3.10
2018-08-10T23:01:03.965Z,2.93
2018-08-10T23:03:33.812Z,2.93
2018-08-10T23:06:03.435Z,2.90
2018-08-10T23:08:33.021Z,3.70
2018-08-10T23:11:02.791Z,3.73
2018-08-10T23:13:32.605Z,4.53
2018-08-10T23:16:02.120Z,4.30
2018-08-10T23:18:31.787Z,3.77
2018-08-10T23:21:01.497Z,4.40
2018-08-10T23:23:31.436Z,2.77
2018-08-10T23:26:01.310Z,4.90
2018-08-10T23:28:31.101Z,3.13
2018-08-10T23:31:01.094Z,3.03
2018-08-10T23:33:30.697Z,3.53
2018-08-10T23:36:00.176Z,3.20
2018-08-10T23:38:29.720Z,2.87
2018-08-10T23:40:59.698Z,4.40
2018-08-10T23:43:29.348Z,7.87
2018-08-10T23:45:59.200Z,4.30
2018-08-10T23:48:28.885Z,5.77
2018-08-10T23:50:58.673Z,5.73
2018-08-10T23:53:28.632Z,5.20
2018-08-10T23:55:58.417Z,5.27
2018-08-10T23:58:28.347Z,3.80
